首页
METAR-TAF:

METAR-TAF

机场 :

金夏沙, 刚果

恩吉利國際機場

纬度: 04-23S, 经度: 015-26E, 海拔: 309米

当前天气观测

该预报发布于32分钟前的14:00 UTC
风速6节,风向西北
温度 31°C
湿度 59%
气压 1009 hPa
能見度: 9000
少量云层高于2200英尺
少量云层高于3000英尺, 积雨云.
多云层高于10000英尺

METAR: FZAA 221400Z 32006KT 9000 FEW022 FEW030CB BKN100 31/22 Q1009 NOSIG

时间: 15:32 (14:32 UTC)

预报

该预报发布于3小时和32分钟前的11:00 UTC
预报有效从22日的 12点(UTC)到 23日的 18点(UTC)
风速6节,风向西
能見度: 8000
散云层高于2200英尺
成为
从 22日的 13点(UTC)到 22日的 15点(UTC)
少量云层高于2400英尺
少量云层高于3000英尺, 积雨云.
几率 30% :
短暂存在
从 22日的 16点(UTC)到 22日的 19点(UTC)
雷暴
成为
从 22日的 19点(UTC)到 22日的 21点(UTC)
散云层高于1800英尺
成为
从 23日的 11点(UTC)到 23日的 13点(UTC)
少量云层高于2400英尺
少量云层高于3000英尺, 积雨云.

TAF: FZAA 221100Z 2212/2318 26006KT 8000 SCT022 BECMG 2213/2215 FEW024 FEW030CB PROB30 TEMPO 2216/2219 TS BECMG 2219/2221 SCT018 BECMG 2311/2313 FEW024 FEW030CB

超过4000个机场的气象观测和天气预报(METAR&TAF报告)。

可查询的气象台以黄色和红色小点在地图上表示。

将鼠标移到小点上方,可查看气象台名称。

然后点击查看天气观测和预报。

如需切换地图:点击带黑十字的绿色按钮放大地图;点击带横线的绿色按钮缩小地图;或者点击绿色箭头查看邻近地区的地图。


METAR-TAF: